createdAt,value
2018-12-23T00:00:41.419Z,101421.98
2018-12-23T00:04:45.487Z,101420.56
2018-12-23T00:08:49.520Z,101422.85
2018-12-23T00:12:53.449Z,101420.56
2018-12-23T00:16:57.454Z,101433.43
2018-12-23T00:21:01.949Z,101450.48
2018-12-23T00:25:05.989Z,101437.94
2018-12-23T00:29:09.928Z,101437.48
2018-12-23T00:33:13.871Z,101429.09
2018-12-23T00:37:17.839Z,101427.14
2018-12-23T00:41:21.842Z,101424.11
2018-12-23T00:45:25.789Z,101415.14
2018-12-23T00:49:29.846Z,101423.61
2018-12-23T00:53:33.822Z,101416.86
2018-12-23T00:57:37.776Z,101422.00
2018-12-23T01:01:41.757Z,101436.61
2018-12-23T01:05:45.785Z,101447.91
2018-12-23T01:09:49.830Z,101456.83
2018-12-23T01:13:53.846Z,101445.62
2018-12-23T01:17:57.790Z,101439.69
2018-12-23T01:22:01.751Z,101446.67
2018-12-23T01:26:05.694Z,101448.25
2018-12-23T01:30:09.819Z,101455.45
2018-12-23T01:34:13.859Z,101461.56
2018-12-23T01:38:17.803Z,101465.73
2018-12-23T01:42:21.795Z,101467.44
2018-12-23T01:46:25.747Z,101487.34
2018-12-23T01:50:29.878Z,101482.55
2018-12-23T01:54:33.879Z,101481.98
2018-12-23T01:58:37.828Z,101482.09
2018-12-23T02:02:41.773Z,101485.66
2018-12-23T02:16:17.229Z,101490.05
2018-12-23T02:20:22.801Z,101478.34
2018-12-23T02:24:28.538Z,101488.59
2018-12-23T02:28:34.069Z,101478.90
2018-12-23T02:32:39.541Z,101488.48
2018-12-23T02:41:08.329Z,101488.84
2018-12-23T02:45:14.078Z,101482.33
2018-12-23T02:49:19.702Z,101471.67
2018-12-23T02:53:25.647Z,101475.66
2018-12-23T02:57:31.274Z,101464.75
2018-12-23T03:01:36.941Z,101464.17
2018-12-23T03:05:43.013Z,101463.09
2018-12-23T03:09:48.589Z,101481.48
2018-12-23T03:13:54.422Z,101470.87
2018-12-23T03:17:59.947Z,101465.97
2018-12-23T03:22:05.456Z,101455.73
2018-12-23T03:26:11.157Z,101470.25
2018-12-23T03:30:16.679Z,101475.38
2018-12-23T03:34:22.353Z,101460.07
2018-12-23T03:38:27.994Z,101468.83
2018-12-23T03:42:33.776Z,101468.83
2018-12-23T03:46:39.763Z,101471.27
2018-12-23T03:50:45.432Z,101457.67
2018-12-23T03:54:51.270Z,101453.16
2018-12-23T03:58:57.043Z,101453.16
2018-12-23T04:03:15.788Z,101453.85
2018-12-23T04:07:32.666Z,101443.69
2018-12-23T04:11:38.375Z,101443.69
2018-12-23T04:15:43.947Z,101450.00
2018-12-23T04:19:49.876Z,101444.00
2018-12-23T04:23:55.659Z,101444.00
2018-12-23T04:28:01.329Z,101432.46
2018-12-23T04:32:06.939Z,101438.86
2018-12-23T04:36:12.532Z,101444.85
2018-12-23T04:40:18.371Z,101429.02
2018-12-23T04:44:24.376Z,101428.51
2018-12-23T04:48:30.087Z,101419.42
2018-12-23T04:52:35.784Z,101430.73
2018-12-23T04:56:41.757Z,101429.42
2018-12-23T05:00:47.830Z,101416.20
2018-12-23T05:04:53.673Z,101419.05
2018-12-23T05:08:59.266Z,101416.87
2018-12-23T05:13:05.340Z,101396.24
2018-12-23T05:17:10.852Z,101396.24
2018-12-23T05:21:16.401Z,101410.00
2018-12-23T05:25:22.007Z,101401.54
2018-12-23T05:29:39.720Z,101413.74
2018-12-23T05:33:45.117Z,101413.74
2018-12-23T05:37:50.618Z,101408.17
2018-12-23T05:41:56.060Z,101411.45
2018-12-23T05:46:01.376Z,101416.00
2018-12-23T05:50:06.874Z,101413.74
2018-12-23T05:54:12.361Z,101413.28
2018-12-23T05:58:17.802Z,101404.54
2018-12-23T06:02:23.089Z,101404.54
2018-12-23T06:06:28.607Z,101402.30
2018-12-23T06:10:34.222Z,101399.83
2018-12-23T06:14:45.111Z,101398.18
2018-12-23T06:19:01.768Z,101409.44
2018-12-23T06:23:07.150Z,101402.92
2018-12-23T06:27:12.501Z,101410.81
2018-12-23T06:31:36.838Z,101406.47
2018-12-23T06:35:42.424Z,101403.31
2018-12-23T06:39:47.890Z,101401.27
2018-12-23T06:43:53.335Z,101402.80
2018-12-23T06:47:59.071Z,101398.45
2018-12-23T06:52:04.543Z,101401.73
2018-12-23T06:56:09.919Z,101402.92
2018-12-23T07:00:15.470Z,101410.81
2018-12-23T07:04:21.021Z,101399.00
2018-12-23T07:08:26.411Z,101375.24
2018-12-23T07:12:31.783Z,101387.08
2018-12-23T07:16:37.272Z,101379.45
2018-12-23T07:20:55.362Z,101384.72
2018-12-23T07:25:00.820Z,101383.92
2018-12-23T07:29:06.289Z,101380.92
2018-12-23T07:33:11.846Z,101380.92
2018-12-23T07:37:27.239Z,101392.36
2018-12-23T07:41:45.597Z,101387.89
2018-12-23T07:45:51.029Z,101379.66
2018-12-23T07:49:56.317Z,101375.84
2018-12-23T07:54:01.697Z,101387.95
2018-12-23T07:58:07.035Z,101384.86
2018-12-23T08:02:23.691Z,101383.95
2018-12-23T08:06:28.980Z,101374.34
2018-12-23T08:10:34.789Z,101380.00
2018-12-23T08:19:17.055Z,101366.53
2018-12-23T08:23:22.502Z,101359.82
2018-12-23T08:27:27.829Z,101357.45
2018-12-23T08:31:33.227Z,101366.90
2018-12-23T08:35:38.790Z,101365.25
2018-12-23T08:39:44.176Z,101371.64
2018-12-23T08:43:49.551Z,101368.73
2018-12-23T08:47:54.972Z,101370.25
2018-12-23T08:52:00.867Z,101356.64
2018-12-23T08:56:06.347Z,101364.34
2018-12-23T09:04:42.189Z,101362.50
2018-12-23T09:08:47.638Z,101358.61
2018-12-23T09:12:53.008Z,101359.47
2018-12-23T09:16:58.565Z,101352.33
2018-12-23T09:21:22.935Z,101350.35
2018-12-23T09:25:28.439Z,101344.23
2018-12-23T09:29:33.948Z,101337.26
2018-12-23T09:33:39.371Z,101337.26
2018-12-23T09:37:44.699Z,101333.77
2018-12-23T09:41:50.221Z,101326.73
2018-12-23T09:45:55.824Z,101322.91
2018-12-23T09:50:01.201Z,101325.94
2018-12-23T09:54:25.627Z,101332.13
2018-12-23T09:58:31.742Z,101310.70
2018-12-23T10:02:38.803Z,101299.59
2018-12-23T10:06:46.102Z,101309.85
2018-12-23T10:10:51.444Z,101298.30
2018-12-23T10:14:56.818Z,101294.35
2018-12-23T10:19:02.257Z,101292.81
2018-12-23T10:23:07.747Z,101283.50
2018-12-23T10:27:13.152Z,101282.03
2018-12-23T10:31:18.538Z,101276.05
2018-12-23T10:35:24.092Z,101274.86
2018-12-23T10:39:29.511Z,101262.56
2018-12-23T10:43:34.990Z,101262.56
2018-12-23T10:47:42.115Z,101256.42
2018-12-23T10:51:47.581Z,101246.22
2018-12-23T10:55:53.172Z,101243.53
2018-12-23T10:59:58.717Z,101243.73
2018-12-23T11:04:05.026Z,101224.08
2018-12-23T11:08:10.488Z,101224.08
2018-12-23T11:12:15.900Z,101214.47
2018-12-23T11:16:26.956Z,101216.58
2018-12-23T11:20:32.402Z,101193.97
2018-12-23T11:24:37.894Z,101193.97
2018-12-23T11:28:43.308Z,101173.97
2018-12-23T11:32:48.980Z,101173.97
2018-12-23T11:41:24.827Z,101149.56
2018-12-23T11:45:30.257Z,101143.98
2018-12-23T11:49:35.729Z,101137.27
2018-12-23T11:53:41.416Z,101121.30
2018-12-23T11:57:47.201Z,101123.01
2018-12-23T12:06:12.054Z,101098.16
2018-12-23T12:10:17.733Z,101100.80
2018-12-23T12:14:23.138Z,101093.04
2018-12-23T12:18:28.714Z,101080.21
2018-12-23T12:22:34.335Z,101078.19
2018-12-23T12:26:58.923Z,101069.97
2018-12-23T12:31:04.417Z,101059.03
2018-12-23T12:35:30.872Z,101057.22
2018-12-23T12:39:36.137Z,101056.75
2018-12-23T12:43:41.667Z,101034.93
2018-12-23T12:47:47.005Z,101033.48
2018-12-23T12:51:52.498Z,101021.53
2018-12-23T12:55:57.885Z,101005.48
2018-12-23T13:00:03.716Z,100989.09
2018-12-23T13:04:09.123Z,100963.80
2018-12-23T13:08:33.832Z,100962.48
2018-12-23T13:12:39.387Z,100948.84
2018-12-23T13:16:45.081Z,100939.42
2018-12-23T13:20:50.607Z,100942.45
2018-12-23T13:24:56.280Z,100935.48
2018-12-23T13:29:01.831Z,100933.33
2018-12-23T13:33:07.275Z,100914.00
2018-12-23T13:37:13.043Z,100910.73
2018-12-23T13:41:41.096Z,100909.52
2018-12-23T13:46:24.562Z,100913.75
2018-12-23T13:51:07.918Z,100896.91
2018-12-23T13:55:51.373Z,100872.72
2018-12-23T14:00:34.799Z,100872.09
2018-12-23T14:05:18.255Z,100854.70
2018-12-23T14:10:01.683Z,100850.50
2018-12-23T14:14:07.097Z,100838.69
2018-12-23T14:18:14.168Z,100841.98
2018-12-23T14:22:19.613Z,100825.41
2018-12-23T14:26:25.087Z,100813.39
2018-12-23T14:30:30.599Z,100811.09
2018-12-23T14:34:36.101Z,100811.41
2018-12-23T14:38:41.569Z,100804.36
2018-12-23T14:42:47.169Z,100777.84
2018-12-23T14:46:52.623Z,100783.20
2018-12-23T14:51:17.226Z,100769.76
2018-12-23T14:55:22.631Z,100767.73
2018-12-23T14:59:28.137Z,100767.17
2018-12-23T15:03:33.555Z,100757.92
2018-12-23T15:07:58.206Z,100746.08
2018-12-23T15:12:03.699Z,100743.64
2018-12-23T15:16:20.426Z,100723.55
2018-12-23T15:20:26.178Z,100727.53
2018-12-23T15:24:31.494Z,100735.72
2018-12-23T15:28:56.324Z,100724.77
2018-12-23T15:33:01.733Z,100733.95
2018-12-23T15:37:07.206Z,100725.13
2018-12-23T15:41:12.793Z,100712.96
2018-12-23T15:45:18.286Z,100689.86
2018-12-23T15:49:23.805Z,100681.27
2018-12-23T15:53:48.232Z,100674.95
2018-12-23T15:57:53.723Z,100674.95
2018-12-23T16:01:59.213Z,100670.89
2018-12-23T16:10:21.641Z,100655.59
2018-12-23T16:14:26.970Z,100652.94
2018-12-23T16:18:44.154Z,100634.21
2018-12-23T16:22:49.562Z,100634.21
2018-12-23T16:26:55.066Z,100642.44
2018-12-23T16:31:00.630Z,100638.42
2018-12-23T16:35:25.511Z,100640.83
2018-12-23T16:39:31.708Z,100639.52
2018-12-23T16:43:37.704Z,100628.39
2018-12-23T16:47:54.586Z,100615.58
2018-12-23T16:56:38.616Z,100603.70
2018-12-23T17:00:43.984Z,100603.70
2018-12-23T17:04:49.468Z,100620.50
2018-12-23T17:09:14.104Z,100607.30
2018-12-23T17:22:06.129Z,100590.19
2018-12-23T17:26:30.412Z,100602.23
2018-12-23T17:35:08.352Z,100575.05
2018-12-23T17:49:43.826Z,100576.13
2018-12-23T18:12:07.690Z,100546.45
2018-12-23T18:16:13.327Z,100553.75
2018-12-23T18:20:18.810Z,100550.77
2018-12-23T18:24:25.591Z,100559.62
2018-12-23T18:28:31.102Z,100553.62
2018-12-23T18:32:36.454Z,100569.64
2018-12-23T18:36:42.143Z,100569.64
2018-12-23T18:40:47.644Z,100564.78
2018-12-23T18:44:53.353Z,100547.89
2018-12-23T18:48:58.751Z,100553.40
2018-12-23T18:53:04.261Z,100561.73
2018-12-23T18:57:29.451Z,100566.56
2018-12-23T19:01:36.272Z,100573.47
2018-12-23T19:05:41.723Z,100558.70
2018-12-23T19:09:56.746Z,100548.64
2018-12-23T19:14:40.454Z,100558.73
2018-12-23T19:19:23.873Z,100554.97
2018-12-23T19:24:07.314Z,100552.66
2018-12-23T19:28:50.798Z,100557.38
2018-12-23T19:33:20.919Z,100548.35
2018-12-23T19:43:13.459Z,100547.92
2018-12-23T19:48:11.339Z,100549.81
2018-12-23T20:16:49.722Z,100552.59
2018-12-23T20:34:50.350Z,100594.39
2018-12-23T20:48:03.407Z,100642.11
2018-12-23T22:01:54.753Z,100861.48
2018-12-23T22:06:22.943Z,100888.97
2018-12-23T22:11:02.166Z,100874.44
2018-12-23T22:56:33.595Z,100968.27
2018-12-23T23:00:08.047Z,100987.29
2018-12-23T23:04:15.205Z,101012.41
2018-12-23T23:12:45.191Z,101033.99
2018-12-23T23:16:50.722Z,101031.59
2018-12-23T23:21:37.214Z,101054.95
2018-12-23T23:25:27.809Z,101081.20
2018-12-23T23:29:33.184Z,101076.23
2018-12-23T23:33:38.654Z,101098.15
2018-12-23T23:37:44.072Z,101085.84
2018-12-23T23:41:58.097Z,101094.10
2018-12-23T23:46:02.298Z,101104.27
2018-12-23T23:54:29.118Z,101113.94
2018-12-23T23:58:34.508Z,101129.45
